createdAt,value
2023-03-10T00:01:35.279Z,11.4
2023-03-10T00:04:01.379Z,11.4
2023-03-10T00:06:27.546Z,11.4
2023-03-10T00:08:52.696Z,11.5
2023-03-10T00:11:18.697Z,11.5
2023-03-10T00:13:44.839Z,11.5
2023-03-10T00:16:10.864Z,11.5
2023-03-10T00:18:36.953Z,11.5
2023-03-10T00:21:03.077Z,11.5
2023-03-10T00:23:29.148Z,11.5
2023-03-10T00:25:55.249Z,11.4
2023-03-10T00:28:21.338Z,11.4
2023-03-10T00:30:47.442Z,11.4
2023-03-10T00:33:13.547Z,11.3
2023-03-10T00:35:39.634Z,11.3
2023-03-10T00:38:05.754Z,11.3
2023-03-10T00:40:30.833Z,11.3
2023-03-10T00:42:56.938Z,11.3
2023-03-10T00:45:23.075Z,11.2
2023-03-10T00:47:49.129Z,11.2
2023-03-10T00:50:15.223Z,11.1
2023-03-10T00:52:41.320Z,11.1
2023-03-10T00:55:07.413Z,11.1
2023-03-10T00:57:33.520Z,11.1
2023-03-10T00:59:59.602Z,11
2023-03-10T01:02:25.705Z,11
2023-03-10T01:04:51.809Z,11
2023-03-10T01:07:17.903Z,11
2023-03-10T01:09:43.979Z,11
2023-03-10T01:12:09.107Z,11
2023-03-10T01:14:35.241Z,11
2023-03-10T01:17:01.366Z,10.9
2023-03-10T01:19:27.637Z,10.9
2023-03-10T01:21:53.645Z,10.9
2023-03-10T01:24:19.632Z,10.9
2023-03-10T01:26:45.769Z,10.8
2023-03-10T01:29:11.828Z,10.8
2023-03-10T01:31:37.947Z,10.8
2023-03-10T01:34:03.967Z,10.7
2023-03-10T01:36:30.062Z,10.6
2023-03-10T01:38:56.200Z,10.6
2023-03-10T01:41:22.280Z,10.5
2023-03-10T01:43:47.356Z,10.5
2023-03-10T01:46:13.456Z,10.4
2023-03-10T01:48:39.585Z,10.4
2023-03-10T01:51:05.635Z,10.3
2023-03-10T01:53:31.753Z,10.3
2023-03-10T01:55:57.827Z,10.2
2023-03-10T01:58:23.940Z,10.2
2023-03-10T02:00:50.040Z,10.1
2023-03-10T02:03:16.117Z,10.1
2023-03-10T02:05:42.212Z,10.1
2023-03-10T02:08:08.301Z,10.1
2023-03-10T02:10:34.408Z,10.1
2023-03-10T02:13:00.491Z,10.2
2023-03-10T02:15:25.603Z,10.2
2023-03-10T02:17:51.702Z,10.3
2023-03-10T02:20:17.805Z,10.4
2023-03-10T02:22:43.902Z,10.5
2023-03-10T02:25:09.991Z,10.5
2023-03-10T02:27:36.186Z,10.6
2023-03-10T02:30:02.183Z,10.7
2023-03-10T02:32:28.290Z,10.8
2023-03-10T02:34:54.386Z,10.9
2023-03-10T02:37:20.473Z,11
2023-03-10T02:39:46.569Z,11
2023-03-10T02:42:12.673Z,11.1
2023-03-10T02:44:38.749Z,11.1
2023-03-10T02:47:03.870Z,11.2
2023-03-10T02:49:29.963Z,11.2
2023-03-10T02:51:56.059Z,11.2
2023-03-10T02:54:22.151Z,11.3
2023-03-10T02:56:48.264Z,11.3
2023-03-10T02:59:14.336Z,11.3
2023-03-10T03:01:40.436Z,11.3
2023-03-10T03:04:06.594Z,11.3
2023-03-10T03:06:32.631Z,11.3
2023-03-10T03:08:58.722Z,11.3
2023-03-10T03:11:24.824Z,11.3
2023-03-10T03:13:50.910Z,11.3
2023-03-10T03:16:17.004Z,11.3
2023-03-10T03:18:42.123Z,11.2
2023-03-10T03:21:08.204Z,11.2
2023-03-10T03:23:34.311Z,11.2
2023-03-10T03:26:00.429Z,11.2
2023-03-10T03:28:26.499Z,11.2
2023-03-10T03:30:52.645Z,11.2
2023-03-10T03:33:18.685Z,11.2
2023-03-10T03:35:44.770Z,11.2
2023-03-10T03:38:10.874Z,11.2
2023-03-10T03:40:36.972Z,11.2
2023-03-10T03:43:03.067Z,11.2
2023-03-10T03:45:29.176Z,11.1
2023-03-10T03:47:55.268Z,11.1
2023-03-10T03:50:20.368Z,11.1
2023-03-10T03:52:46.497Z,11
2023-03-10T03:55:12.574Z,11
2023-03-10T03:57:38.717Z,11
2023-03-10T04:00:04.755Z,10.9
2023-03-10T04:02:30.848Z,10.9
2023-03-10T04:04:55.964Z,10.8
2023-03-10T04:07:22.067Z,10.8
2023-03-10T04:09:48.163Z,10.8
2023-03-10T04:12:14.254Z,10.8
2023-03-10T04:14:40.373Z,10.7
2023-03-10T04:17:06.494Z,10.7
2023-03-10T04:19:32.536Z,10.7
2023-03-10T04:21:58.636Z,10.6
2023-03-10T04:24:24.722Z,10.6
2023-03-10T04:26:50.825Z,10.6
2023-03-10T04:29:16.924Z,10.5
2023-03-10T04:31:43.023Z,10.5
2023-03-10T04:34:09.107Z,10.5
2023-03-10T04:36:34.219Z,10.5
2023-03-10T04:39:00.325Z,10.5
2023-03-10T04:41:26.412Z,10.4
2023-03-10T04:43:52.516Z,10.4
2023-03-10T04:46:18.595Z,10.4
2023-03-10T04:48:44.694Z,10.4
2023-03-10T04:51:10.786Z,10.3
2023-03-10T04:53:36.886Z,10.3
2023-03-10T04:56:02.974Z,10.3
2023-03-10T04:58:29.099Z,10.3
2023-03-10T05:00:55.175Z,10.3
2023-03-10T05:03:21.270Z,10.3
2023-03-10T05:05:47.408Z,10.4
2023-03-10T05:08:12.468Z,10.4
2023-03-10T05:10:38.570Z,10.5
2023-03-10T05:13:04.673Z,10.5
2023-03-10T05:15:30.755Z,10.6
2023-03-10T05:17:56.853Z,10.6
2023-03-10T05:20:22.945Z,10.6
2023-03-10T05:22:49.057Z,10.5
2023-03-10T05:25:15.141Z,10.5
2023-03-10T05:27:41.229Z,10.4
2023-03-10T05:30:07.313Z,10.4
2023-03-10T05:32:33.412Z,10.3
2023-03-10T05:34:59.516Z,10.2
2023-03-10T05:37:25.606Z,10.1
2023-03-10T05:39:50.728Z,10.1
2023-03-10T05:42:16.831Z,10
2023-03-10T05:44:42.937Z,9.9
2023-03-10T05:47:09.003Z,9.9
2023-03-10T05:49:35.106Z,9.9
2023-03-10T05:52:01.218Z,9.9
2023-03-10T05:54:27.328Z,9.9
2023-03-10T05:56:53.398Z,9.9
2023-03-10T05:59:19.499Z,9.9
2023-03-10T06:01:45.620Z,10
2023-03-10T06:04:11.687Z,10.1
2023-03-10T06:06:37.765Z,10.2
2023-03-10T06:09:03.891Z,10.2
2023-03-10T06:11:28.976Z,10.3
2023-03-10T06:13:55.069Z,10.4
2023-03-10T06:16:21.175Z,10.5
2023-03-10T06:18:47.287Z,10.5
2023-03-10T06:21:13.390Z,10.5
2023-03-10T06:23:39.529Z,10.5
2023-03-10T06:26:05.548Z,10.5
2023-03-10T06:28:31.774Z,10.5
2023-03-10T06:30:57.805Z,10.5
2023-03-10T06:33:23.851Z,10.5
2023-03-10T06:35:49.936Z,10.5
2023-03-10T06:38:16.023Z,10.4
2023-03-10T06:40:42.127Z,10.4
2023-03-10T06:43:07.245Z,10.4
2023-03-10T06:45:33.323Z,10.4
2023-03-10T06:47:59.448Z,10.3
2023-03-10T06:50:25.538Z,10.3
2023-03-10T06:52:51.610Z,10.2
2023-03-10T06:55:17.731Z,10.2
2023-03-10T06:57:43.815Z,10.1
2023-03-10T07:00:10.052Z,10.1
2023-03-10T07:02:36.013Z,10.1
2023-03-10T07:05:02.098Z,10.1
2023-03-10T07:07:28.212Z,10.1
2023-03-10T07:09:54.298Z,10.1
2023-03-10T07:12:20.393Z,10.1
2023-03-10T07:14:45.487Z,10.2
2023-03-10T07:17:11.579Z,10.2
2023-03-10T07:19:37.687Z,10.3
2023-03-10T07:22:03.785Z,10.3
2023-03-10T07:24:29.890Z,10.4
2023-03-10T07:26:56.005Z,10.4
2023-03-10T07:29:22.071Z,10.4
2023-03-10T07:31:48.205Z,10.4
2023-03-10T07:34:14.248Z,10.4
2023-03-10T07:36:40.358Z,10.5
2023-03-10T07:39:06.488Z,10.5
2023-03-10T07:41:32.534Z,10.5
2023-03-10T07:43:58.639Z,10.5
2023-03-10T07:46:23.754Z,10.5
2023-03-10T07:48:49.843Z,10.6
2023-03-10T07:51:15.942Z,10.6
2023-03-10T07:53:42.076Z,10.7
2023-03-10T07:56:08.155Z,10.7
2023-03-10T07:58:34.230Z,10.7
2023-03-10T08:01:00.327Z,10.8
2023-03-10T08:03:26.448Z,10.8
2023-03-10T08:05:52.628Z,10.8
2023-03-10T08:08:18.612Z,10.8
2023-03-10T08:10:44.902Z,10.9
2023-03-10T08:13:10.961Z,11
2023-03-10T08:15:36.985Z,11
2023-03-10T08:18:02.144Z,11.1
2023-03-10T08:20:28.085Z,11.1
2023-03-10T08:22:54.194Z,11.1
2023-03-10T08:25:20.396Z,11.1
2023-03-10T08:27:46.392Z,11.1
2023-03-10T08:30:12.528Z,11
2023-03-10T08:32:38.648Z,11
2023-03-10T08:35:04.681Z,10.8
2023-03-10T08:37:30.760Z,10.5
2023-03-10T08:39:56.862Z,10.2
2023-03-10T08:42:23.034Z,10
2023-03-10T08:44:49.042Z,9.7
2023-03-10T08:47:15.160Z,9.6
2023-03-10T08:49:40.298Z,9.4
2023-03-10T08:52:06.501Z,9.3
2023-03-10T08:54:32.564Z,9.2
2023-03-10T08:56:58.594Z,9.1
2023-03-10T08:59:24.687Z,9.1
2023-03-10T09:01:50.787Z,9.1
2023-03-10T09:04:16.889Z,9
2023-03-10T09:06:43.015Z,9
2023-03-10T09:09:09.146Z,8.9
2023-03-10T09:11:35.109Z,8.9
2023-03-10T09:14:01.335Z,8.9
2023-03-10T09:16:27.332Z,8.9
2023-03-10T09:18:53.398Z,8.9
2023-03-10T09:21:18.525Z,9
2023-03-10T09:23:44.644Z,9
2023-03-10T09:26:10.700Z,9.1
2023-03-10T09:28:36.827Z,9.1
2023-03-10T09:31:02.915Z,9.2
2023-03-10T09:33:29.001Z,9.4
2023-03-10T09:35:55.082Z,9.7
2023-03-10T09:38:21.203Z,9.9
2023-03-10T09:40:47.275Z,10.1
2023-03-10T09:43:13.382Z,10.3
2023-03-10T09:45:39.473Z,10.5
2023-03-10T09:48:05.556Z,10.7
2023-03-10T09:50:31.663Z,10.9
2023-03-10T09:52:56.776Z,11
2023-03-10T09:55:22.848Z,11.1
2023-03-10T09:57:48.950Z,11.2
2023-03-10T10:00:15.087Z,11.3
2023-03-10T10:02:41.166Z,11.4
2023-03-10T10:05:07.239Z,11.5
2023-03-10T10:07:33.339Z,11.5
2023-03-10T10:09:59.435Z,11.5
2023-03-10T10:12:25.632Z,11.5
2023-03-10T10:14:51.619Z,11.5
2023-03-10T10:17:17.803Z,11.5
2023-03-10T10:19:43.932Z,11.5
2023-03-10T10:22:09.917Z,11.6
2023-03-10T10:24:35.025Z,11.7
2023-03-10T10:27:01.114Z,11.7
2023-03-10T10:29:27.236Z,11.7
2023-03-10T10:31:53.294Z,11.7
2023-03-10T10:34:19.395Z,11.7
2023-03-10T10:36:45.548Z,11.6
2023-03-10T10:39:11.615Z,11.6
2023-03-10T10:41:37.793Z,11.5
2023-03-10T10:44:03.816Z,11.4
2023-03-10T10:46:29.919Z,11.3
2023-03-10T10:48:55.991Z,11.2
2023-03-10T10:51:22.095Z,11.1
2023-03-10T10:53:48.168Z,11.1
2023-03-10T10:56:13.291Z,11
2023-03-10T10:58:39.409Z,11
2023-03-10T11:01:05.474Z,11.1
2023-03-10T11:03:31.575Z,11.1
2023-03-10T11:05:57.666Z,11.1
2023-03-10T11:08:23.754Z,11.1
2023-03-10T11:10:49.850Z,11.1
2023-03-10T11:13:16.000Z,11.1
2023-03-10T11:15:42.096Z,11.1
2023-03-10T11:18:08.183Z,11.1
2023-03-10T11:20:34.292Z,11.2
2023-03-10T11:23:00.461Z,11.3
2023-03-10T11:25:26.436Z,11.4
2023-03-10T11:27:51.567Z,11.5
2023-03-10T11:30:17.678Z,11.7
2023-03-10T11:32:43.733Z,11.8
2023-03-10T11:35:09.937Z,11.8
2023-03-10T11:40:02.017Z,11.8
2023-03-10T11:42:28.142Z,11.8
2023-03-10T11:44:54.215Z,11.7
2023-03-10T11:47:20.302Z,11.7
2023-03-10T11:49:46.455Z,11.6
2023-03-10T11:52:12.493Z,11.6
2023-03-10T11:54:38.625Z,11.5
2023-03-10T11:57:04.681Z,11.5
2023-03-10T11:59:29.799Z,11.5
2023-03-10T12:01:55.887Z,11.5
2023-03-10T12:04:21.986Z,11.5
2023-03-10T12:06:48.081Z,11.5
2023-03-10T12:09:14.174Z,11.6
2023-03-10T12:11:40.275Z,11.6
2023-03-10T12:14:05.386Z,11.7
2023-03-10T12:16:31.577Z,11.7
2023-03-10T12:18:57.624Z,11.8
2023-03-10T12:21:23.693Z,11.8
2023-03-10T12:23:49.774Z,11.8
2023-03-10T12:26:15.870Z,11.9
2023-03-10T12:28:41.978Z,11.9
2023-03-10T12:31:08.065Z,11.8
2023-03-10T12:33:34.143Z,11.8
2023-03-10T12:36:00.243Z,11.8
2023-03-10T12:38:26.337Z,11.7
2023-03-10T12:40:52.441Z,11.8
2023-03-10T12:43:18.555Z,11.8
2023-03-10T12:45:43.643Z,11.9
2023-03-10T12:48:09.744Z,12
2023-03-10T12:50:35.836Z,12
2023-03-10T12:53:02.119Z,12
2023-03-10T12:55:28.108Z,12
2023-03-10T12:57:54.121Z,12
2023-03-10T13:00:20.232Z,11.9
2023-03-10T13:02:46.331Z,11.8
2023-03-10T13:05:12.418Z,11.8
2023-03-10T13:07:38.579Z,11.7
2023-03-10T13:10:04.594Z,11.7
2023-03-10T13:12:30.772Z,11.7
2023-03-10T13:14:56.820Z,11.8
2023-03-10T13:17:21.905Z,11.8
2023-03-10T13:19:48.023Z,11.8
2023-03-10T13:22:14.079Z,11.7
2023-03-10T13:24:40.206Z,11.6
2023-03-10T13:27:06.306Z,11.5
2023-03-10T13:29:32.367Z,11.5
2023-03-10T13:31:58.483Z,11.4
2023-03-10T13:34:24.556Z,11.4
2023-03-10T13:36:50.784Z,11.4
2023-03-10T13:39:16.778Z,11.3
2023-03-10T13:41:42.862Z,11.3
2023-03-10T13:44:08.952Z,11.2
2023-03-10T13:46:35.078Z,11.1
2023-03-10T13:49:00.158Z,11
2023-03-10T13:51:26.318Z,10.9
2023-03-10T13:53:52.360Z,10.8
2023-03-10T13:56:18.439Z,10.7
2023-03-10T13:58:44.657Z,10.6
2023-03-10T14:01:10.621Z,10.4
2023-03-10T14:03:36.731Z,10.3
2023-03-10T14:06:02.910Z,10.1
2023-03-10T14:08:28.928Z,10
2023-03-10T14:10:55.024Z,9.9
2023-03-10T14:13:21.105Z,9.9
2023-03-10T14:15:47.203Z,9.9
2023-03-10T14:18:13.313Z,9.9
2023-03-10T14:20:38.404Z,9.8
2023-03-10T14:23:04.501Z,9.8
2023-03-10T14:25:30.587Z,9.8
2023-03-10T14:27:56.703Z,9.8
2023-03-10T14:30:22.817Z,9.8
2023-03-10T14:32:48.868Z,9.8
2023-03-10T14:35:14.966Z,9.8
2023-03-10T14:37:41.079Z,9.9
2023-03-10T14:40:07.199Z,9.9
2023-03-10T14:42:33.316Z,10
2023-03-10T14:44:59.347Z,10
2023-03-10T14:47:25.439Z,10
2023-03-10T14:49:51.572Z,10
2023-03-10T14:52:16.659Z,9.9
2023-03-10T14:54:42.743Z,9.9
2023-03-10T14:57:08.846Z,9.8
2023-03-10T14:59:34.935Z,9.8
2023-03-10T15:02:01.030Z,9.7
2023-03-10T15:04:27.172Z,9.7
2023-03-10T15:06:53.230Z,9.7
2023-03-10T15:09:19.330Z,9.6
2023-03-10T15:11:45.452Z,9.6
2023-03-10T15:14:11.643Z,9.6
2023-03-10T15:16:37.621Z,9.6
2023-03-10T15:19:03.898Z,9.6
2023-03-10T15:21:29.985Z,9.5
2023-03-10T15:23:55.047Z,9.5
2023-03-10T15:26:21.091Z,9.5
2023-03-10T15:28:47.227Z,9.4
2023-03-10T15:31:13.263Z,9.4
2023-03-10T15:33:39.407Z,9.3
2023-03-10T15:36:05.473Z,9.3
2023-03-10T15:38:31.597Z,9.2
2023-03-10T15:40:57.609Z,9.1
2023-03-10T15:43:23.779Z,9
2023-03-10T15:45:49.894Z,8.9
2023-03-10T15:48:15.998Z,8.8
2023-03-10T15:50:42.012Z,8.8
2023-03-10T15:53:08.050Z,8.7
2023-03-10T15:55:33.219Z,8.7
2023-03-10T15:57:59.377Z,8.7
2023-03-10T16:00:25.363Z,8.7
2023-03-10T16:02:51.455Z,8.6
2023-03-10T16:05:17.551Z,8.6
2023-03-10T16:07:43.683Z,8.6
2023-03-10T16:10:09.748Z,8.6
2023-03-10T16:12:35.837Z,8.6
2023-03-10T16:15:01.936Z,8.6
2023-03-10T16:17:28.106Z,8.6
2023-03-10T16:19:54.135Z,8.6
2023-03-10T16:22:20.244Z,8.6
2023-03-10T16:24:46.331Z,8.7
2023-03-10T16:27:11.426Z,8.8
2023-03-10T16:29:37.533Z,8.8
2023-03-10T16:32:03.607Z,8.9
2023-03-10T16:34:29.706Z,9
2023-03-10T16:36:55.805Z,9
2023-03-10T16:39:21.939Z,9.1
2023-03-10T16:41:48.027Z,9.1
2023-03-10T16:44:14.137Z,9.1
2023-03-10T16:46:40.252Z,9.1
2023-03-10T16:49:06.339Z,9.1
2023-03-10T16:53:58.519Z,9
2023-03-10T16:56:24.642Z,8.9
2023-03-10T16:58:49.701Z,8.7
2023-03-10T17:01:15.776Z,8.6
2023-03-10T17:03:41.873Z,8.4
2023-03-10T17:06:07.986Z,8.3
2023-03-10T17:08:34.073Z,8.1
2023-03-10T17:11:00.155Z,8
2023-03-10T17:13:26.251Z,7.8
2023-03-10T17:15:52.522Z,7.7
2023-03-10T17:18:18.456Z,7.7
2023-03-10T17:20:44.604Z,7.6
2023-03-10T17:23:10.812Z,7.6
2023-03-10T17:25:36.881Z,7.7
2023-03-10T17:28:03.059Z,7.7
2023-03-10T17:30:29.031Z,7.7
2023-03-10T17:32:55.222Z,7.6
2023-03-10T17:35:21.197Z,7.6
2023-03-10T17:37:47.458Z,7.5
2023-03-10T17:40:13.485Z,7.5
2023-03-10T17:42:39.501Z,7.4
2023-03-10T17:45:04.522Z,7.4
2023-03-10T17:47:30.732Z,7.4
2023-03-10T17:49:56.860Z,7.4
2023-03-10T17:52:22.920Z,7.4
2023-03-10T17:54:48.919Z,7.3
2023-03-10T17:57:14.984Z,7.3
2023-03-10T17:59:41.102Z,7.3
2023-03-10T18:02:07.194Z,7.3
2023-03-10T18:04:33.296Z,7.3
2023-03-10T18:06:59.381Z,7.4
2023-03-10T18:09:25.469Z,7.4
2023-03-10T18:11:51.565Z,7.4
2023-03-10T18:14:17.678Z,7.5
2023-03-10T18:16:42.779Z,7.5
2023-03-10T18:19:08.869Z,7.5
2023-03-10T18:21:34.987Z,7.5
2023-03-10T18:24:01.082Z,7.5
2023-03-10T18:26:27.163Z,7.4
2023-03-10T18:28:53.266Z,7.3
2023-03-10T18:31:19.362Z,7.3
2023-03-10T18:33:45.458Z,7.2
2023-03-10T18:36:11.551Z,7.1
2023-03-10T18:38:37.644Z,7.1
2023-03-10T18:41:03.724Z,7.1
2023-03-10T18:43:29.832Z,7.1
2023-03-10T18:45:55.915Z,7.1
2023-03-10T18:48:21.040Z,7.1
2023-03-10T18:50:47.132Z,7.2
2023-03-10T18:53:13.234Z,7.2
2023-03-10T18:55:39.332Z,7.3
2023-03-10T18:58:05.414Z,7.3
2023-03-10T19:00:31.511Z,7.3
2023-03-10T19:02:57.616Z,7.3
2023-03-10T19:05:23.727Z,7.1
2023-03-10T19:07:49.816Z,7
2023-03-10T19:10:15.883Z,6.9
2023-03-10T19:12:42.015Z,6.7
2023-03-10T19:15:08.102Z,6.6
2023-03-10T19:17:34.199Z,6.5
2023-03-10T19:19:59.294Z,6.4
2023-03-10T19:22:25.386Z,6.3
2023-03-10T19:24:51.501Z,6.2
2023-03-10T19:27:17.584Z,6.2
2023-03-10T19:29:43.668Z,6.2
2023-03-10T19:32:09.789Z,6.1
2023-03-10T19:34:35.866Z,6.1
2023-03-10T19:37:01.965Z,6.1
2023-03-10T19:39:28.064Z,6.1
2023-03-10T19:41:54.152Z,6.1
2023-03-10T19:44:20.281Z,6.1
2023-03-10T19:46:46.372Z,6.1
2023-03-10T19:49:12.450Z,6.1
2023-03-10T19:51:37.548Z,6.1
2023-03-10T19:54:03.652Z,6.1
2023-03-10T19:56:29.767Z,6.1
2023-03-10T19:58:55.842Z,6.1
2023-03-10T20:01:21.935Z,6.1
2023-03-10T20:03:48.036Z,6.1
2023-03-10T20:06:14.142Z,6.1
2023-03-10T20:08:40.213Z,6.2
2023-03-10T20:11:06.317Z,6.2
2023-03-10T20:13:32.427Z,6.3
2023-03-10T20:15:58.560Z,6.3
2023-03-10T20:18:24.622Z,6.4
2023-03-10T20:20:50.710Z,6.4
2023-03-10T20:23:15.803Z,6.5
2023-03-10T20:25:41.905Z,6.5
2023-03-10T20:28:08.041Z,6.5
2023-03-10T20:30:34.129Z,6.5
2023-03-10T20:33:00.204Z,6.4
2023-03-10T20:35:26.305Z,6.3
2023-03-10T20:37:52.385Z,6.2
2023-03-10T20:40:18.531Z,6.1
2023-03-10T20:42:44.598Z,6.1
2023-03-10T20:45:10.665Z,6
2023-03-10T20:47:36.785Z,6
2023-03-10T20:50:02.883Z,6
2023-03-10T20:52:28.962Z,6
2023-03-10T20:54:55.187Z,5.9
2023-03-10T20:57:21.265Z,5.9
2023-03-10T20:59:47.367Z,5.9
2023-03-10T21:02:13.472Z,5.9
2023-03-10T21:04:39.562Z,5.8
2023-03-10T21:07:05.673Z,5.8
2023-03-10T21:09:31.763Z,5.8
2023-03-10T21:11:57.859Z,5.7
2023-03-10T21:14:23.970Z,5.7
2023-03-10T21:16:50.058Z,5.7
2023-03-10T21:19:16.141Z,5.7
2023-03-10T21:21:42.231Z,5.6
2023-03-10T21:24:08.333Z,5.6
2023-03-10T21:26:33.438Z,5.6
2023-03-10T21:28:59.560Z,5.5
2023-03-10T21:31:25.630Z,5.5
2023-03-10T21:36:17.820Z,5.4
2023-03-10T21:38:43.928Z,5.4
2023-03-10T21:41:10.004Z,5.3
2023-03-10T21:43:36.112Z,5.3
2023-03-10T21:46:02.202Z,5.2
2023-03-10T21:48:28.319Z,5.2
2023-03-10T21:50:54.407Z,5.1
2023-03-10T21:53:20.485Z,5.1
2023-03-10T21:55:46.579Z,5.1
2023-03-10T21:58:11.714Z,5.1
2023-03-10T22:00:37.798Z,5
2023-03-10T22:03:03.896Z,5
2023-03-10T22:05:29.979Z,5
2023-03-10T22:07:56.105Z,5
2023-03-10T22:10:22.160Z,5
2023-03-10T22:12:48.276Z,4.9
2023-03-10T22:15:14.356Z,4.9
2023-03-10T22:17:40.464Z,4.9
2023-03-10T22:20:06.553Z,4.9
2023-03-10T22:22:32.663Z,4.8
2023-03-10T22:24:58.751Z,4.8
2023-03-10T22:27:24.833Z,4.8
2023-03-10T22:29:49.952Z,4.8
2023-03-10T22:32:16.048Z,4.8
2023-03-10T22:34:42.177Z,4.8
2023-03-10T22:37:08.234Z,4.8
2023-03-10T22:39:34.327Z,4.7
2023-03-10T22:42:00.416Z,4.7
2023-03-10T22:44:26.517Z,4.7
2023-03-10T22:46:52.611Z,4.7
2023-03-10T22:49:18.719Z,4.7
2023-03-10T22:51:44.812Z,4.6
2023-03-10T22:54:10.901Z,4.6
2023-03-10T22:56:37.001Z,4.5
2023-03-10T22:59:03.085Z,4.5
2023-03-10T23:01:28.240Z,4.5
2023-03-10T23:03:54.317Z,4.5
2023-03-10T23:06:20.434Z,4.5
2023-03-10T23:08:46.497Z,4.5
2023-03-10T23:11:12.597Z,4.5
2023-03-10T23:13:38.683Z,4.5
2023-03-10T23:16:04.764Z,4.5
2023-03-10T23:18:30.874Z,4.5
2023-03-10T23:20:56.974Z,4.5
2023-03-10T23:23:23.069Z,4.5
2023-03-10T23:25:49.172Z,4.4
2023-03-10T23:28:15.257Z,4.4
2023-03-10T23:30:41.348Z,4.4
2023-03-10T23:33:06.465Z,4.4
2023-03-10T23:35:32.563Z,4.4
2023-03-10T23:37:58.671Z,4.4
2023-03-10T23:40:24.746Z,4.4
2023-03-10T23:42:50.848Z,4.4
2023-03-10T23:47:43.040Z,4.3
2023-03-10T23:50:09.135Z,4.3
2023-03-10T23:52:35.228Z,4.3
2023-03-10T23:55:01.342Z,4.3
2023-03-10T23:57:27.425Z,4.3
2023-03-10T23:59:53.521Z,4.3
